createdAt,value
2018-12-15T00:02:02.153Z,18.60
2018-12-15T00:04:31.618Z,17.57
2018-12-15T00:07:00.206Z,18.87
2018-12-15T00:09:29.038Z,18.33
2018-12-15T00:11:57.893Z,16.40
2018-12-15T00:14:27.546Z,19.40
2018-12-15T00:16:56.050Z,19.13
2018-12-15T00:19:24.479Z,19.70
2018-12-15T00:21:53.007Z,15.53
2018-12-15T00:24:21.564Z,17.23
2018-12-15T00:26:50.566Z,20.30
2018-12-15T00:29:19.039Z,18.37
2018-12-15T00:31:47.521Z,20.47
2018-12-15T00:34:16.134Z,20.53
2018-12-15T00:36:44.639Z,18.30
2018-12-15T00:39:13.177Z,19.60
2018-12-15T00:41:41.988Z,20.37
2018-12-15T00:44:10.493Z,21.73
2018-12-15T00:46:39.042Z,17.90
2018-12-15T00:49:07.474Z,19.80
2018-12-15T00:51:36.749Z,18.93
2018-12-15T00:54:05.245Z,16.97
2018-12-15T00:56:33.778Z,20.17
2018-12-15T00:59:02.301Z,17.63
2018-12-15T01:01:30.799Z,22.03
2018-12-15T01:04:00.120Z,20.87
2018-12-15T01:06:28.782Z,20.60
2018-12-15T01:08:57.340Z,19.57
2018-12-15T01:11:25.837Z,18.07
2018-12-15T01:13:54.317Z,20.20
2018-12-15T01:16:22.781Z,18.03
2018-12-15T01:18:51.464Z,19.67
2018-12-15T01:21:20.012Z,17.67
2018-12-15T01:23:48.533Z,20.53
2018-12-15T01:26:18.871Z,18.77
2018-12-15T01:28:47.435Z,18.23
2018-12-15T01:31:16.093Z,19.93
2018-12-15T01:33:45.930Z,18.80
2018-12-15T01:36:14.542Z,16.93
2018-12-15T01:38:43.037Z,19.30
2018-12-15T01:41:11.553Z,18.13
2018-12-15T01:43:40.030Z,16.83
2018-12-15T01:46:09.305Z,20.53
2018-12-15T01:48:38.581Z,18.20
2018-12-15T01:51:07.115Z,19.70
2018-12-15T01:53:36.775Z,15.97
2018-12-15T01:56:05.266Z,18.20
2018-12-15T01:58:33.803Z,21.30
2018-12-15T02:01:02.317Z,17.23
2018-12-15T02:03:30.930Z,17.90
2018-12-15T02:05:59.757Z,17.23
2018-12-15T02:08:28.521Z,17.17
2018-12-15T02:10:57.877Z,17.27
2018-12-15T02:13:26.633Z,18.53
2018-12-15T02:15:55.732Z,19.07
2018-12-15T02:18:24.258Z,18.77
2018-12-15T02:20:52.729Z,19.20
2018-12-15T02:23:21.380Z,19.17
2018-12-15T02:25:50.143Z,17.83
2018-12-15T02:28:18.693Z,19.70
2018-12-15T02:30:47.757Z,21.60
2018-12-15T02:33:16.457Z,19.30
2018-12-15T02:35:45.142Z,20.63
2018-12-15T02:38:14.007Z,21.27
2018-12-15T02:40:42.624Z,19.50
2018-12-15T02:43:11.716Z,20.77
2018-12-15T02:45:40.243Z,20.03
2018-12-15T02:48:08.734Z,19.83
2018-12-15T02:50:37.286Z,21.17
2018-12-15T02:53:05.868Z,19.97
2018-12-15T02:55:34.554Z,18.57
2018-12-15T02:58:34.198Z,20.77
2018-12-15T03:01:02.692Z,19.63
2018-12-15T03:03:31.839Z,17.77
2018-12-15T03:06:00.380Z,19.23
2018-12-15T03:08:28.865Z,17.63
2018-12-15T03:10:57.888Z,20.33
2018-12-15T03:13:26.382Z,21.70
2018-12-15T03:15:55.609Z,20.83
2018-12-15T03:18:24.941Z,22.53
2018-12-15T03:21:00.805Z,19.77
2018-12-15T03:23:30.053Z,19.70
2018-12-15T03:25:58.944Z,16.57
2018-12-15T03:28:28.572Z,18.30
2018-12-15T03:30:57.937Z,19.60
2018-12-15T03:33:26.475Z,17.63
2018-12-15T03:35:55.470Z,16.67
2018-12-15T03:38:24.056Z,19.90
2018-12-15T03:40:52.565Z,19.60
2018-12-15T03:43:20.983Z,19.40
2018-12-15T03:45:50.030Z,17.43
2018-12-15T03:48:19.108Z,18.20
2018-12-15T03:50:48.209Z,18.97
2018-12-15T03:53:16.766Z,21.60
2018-12-15T03:55:45.367Z,20.13
2018-12-15T03:58:13.990Z,23.47
2018-12-15T04:00:42.626Z,18.53
2018-12-15T04:03:11.491Z,16.57
2018-12-15T04:05:40.018Z,16.13
2018-12-15T04:08:08.575Z,18.33
2018-12-15T04:10:38.369Z,19.80
2018-12-15T04:13:06.860Z,17.30
2018-12-15T04:15:35.401Z,18.93
2018-12-15T04:18:04.152Z,15.87
2018-12-15T04:20:32.611Z,15.80
2018-12-15T04:23:01.147Z,16.27
2018-12-15T04:25:29.645Z,18.23
2018-12-15T04:27:58.667Z,18.57
2018-12-15T04:30:27.146Z,19.17
2018-12-15T04:32:55.845Z,18.23
2018-12-15T04:35:24.362Z,19.23
2018-12-15T04:37:52.828Z,16.10
2018-12-15T04:40:21.618Z,17.73
2018-12-15T04:42:50.350Z,16.17
2018-12-15T04:45:18.909Z,18.40
2018-12-15T04:47:47.443Z,17.90
2018-12-15T04:50:15.956Z,16.90
2018-12-15T04:52:44.467Z,16.63
2018-12-15T04:55:12.986Z,18.80
2018-12-15T04:57:41.511Z,16.70
2018-12-15T05:00:10.076Z,16.30
2018-12-15T05:02:43.814Z,16.00
2018-12-15T05:05:09.790Z,17.47
2018-12-15T05:07:38.966Z,15.80
2018-12-15T05:10:07.545Z,14.57
2018-12-15T05:12:36.152Z,16.80
2018-12-15T05:15:04.691Z,15.47
2018-12-15T05:17:33.338Z,18.27
2018-12-15T05:20:01.955Z,16.10
2018-12-15T05:22:30.426Z,14.20
2018-12-15T05:24:59.045Z,15.50
2018-12-15T05:27:27.767Z,13.00
2018-12-15T05:29:57.647Z,14.47
2018-12-15T05:32:26.883Z,13.87
2018-12-15T05:34:55.689Z,15.70
2018-12-15T05:37:25.538Z,12.23
2018-12-15T05:39:54.071Z,15.43
2018-12-15T05:42:22.649Z,12.53
2018-12-15T05:44:51.137Z,12.53
2018-12-15T05:47:19.705Z,12.90
2018-12-15T05:49:48.140Z,12.90
2018-12-15T05:52:16.964Z,16.07
2018-12-15T05:54:45.479Z,20.37
2018-12-15T05:57:13.994Z,15.67
2018-12-15T05:59:42.714Z,13.53
2018-12-15T06:02:13.738Z,14.93
2018-12-15T06:04:42.238Z,13.43
2018-12-15T06:07:11.022Z,11.63
2018-12-15T06:09:40.099Z,15.00
2018-12-15T06:12:08.639Z,15.33
2018-12-15T06:14:37.252Z,13.77
2018-12-15T06:17:05.805Z,15.57
2018-12-15T06:19:34.363Z,15.47
2018-12-15T06:22:02.909Z,16.17
2018-12-15T06:24:31.453Z,13.53
2018-12-15T06:27:00.045Z,15.50
2018-12-15T06:29:28.583Z,14.60
2018-12-15T06:31:57.109Z,12.77
2018-12-15T06:34:25.644Z,13.57
2018-12-15T06:36:54.131Z,12.23
2018-12-15T06:39:23.381Z,14.37
2018-12-15T06:41:52.541Z,15.87
2018-12-15T06:44:21.061Z,15.23
2018-12-15T06:46:49.618Z,14.57
2018-12-15T06:49:18.812Z,12.40
2018-12-15T06:51:47.770Z,12.60
2018-12-15T06:54:16.487Z,15.17
2018-12-15T06:56:45.035Z,17.50
2018-12-15T06:59:14.298Z,14.33
2018-12-15T07:01:42.857Z,13.60
2018-12-15T07:04:11.416Z,14.30
2018-12-15T07:06:39.997Z,13.97
2018-12-15T07:09:08.543Z,12.63
2018-12-15T07:11:38.147Z,14.47
2018-12-15T07:14:06.647Z,14.17
2018-12-15T07:16:35.140Z,12.70
2018-12-15T07:19:04.474Z,14.27
2018-12-15T07:21:33.048Z,13.80
2018-12-15T07:24:01.642Z,14.03
2018-12-15T07:26:30.269Z,14.17
2018-12-15T07:28:59.217Z,15.63
2018-12-15T07:31:28.325Z,14.67
2018-12-15T07:33:56.955Z,15.60
2018-12-15T07:36:25.376Z,14.37
2018-12-15T07:38:54.058Z,14.63
2018-12-15T07:41:22.570Z,14.73
2018-12-15T07:43:51.982Z,16.30
2018-12-15T07:46:20.945Z,14.63
2018-12-15T07:48:51.532Z,16.37
2018-12-15T07:51:21.263Z,13.00
2018-12-15T07:53:49.789Z,16.07
2018-12-15T07:56:21.997Z,12.70
2018-12-15T07:58:51.146Z,13.07
2018-12-15T08:01:19.788Z,15.40
2018-12-15T08:03:48.378Z,14.97
2018-12-15T08:06:17.210Z,13.50
2018-12-15T08:08:46.902Z,13.87
2018-12-15T08:11:28.009Z,13.80
2018-12-15T08:14:01.845Z,13.43
2018-12-15T08:16:31.000Z,12.53
2018-12-15T08:19:00.314Z,14.33
2018-12-15T08:21:28.817Z,12.70
2018-12-15T08:23:57.945Z,11.97
2018-12-15T08:26:26.422Z,13.50
2018-12-15T08:28:54.926Z,14.30
2018-12-15T08:31:24.204Z,13.90
2018-12-15T08:33:53.344Z,12.17
2018-12-15T08:36:21.911Z,13.57
2018-12-15T08:38:50.425Z,13.40
2018-12-15T08:41:18.945Z,14.57
2018-12-15T08:43:48.191Z,15.10
2018-12-15T08:46:18.818Z,15.67
2018-12-15T08:48:47.602Z,14.23
2018-12-15T08:51:17.091Z,14.20
2018-12-15T08:53:46.273Z,14.03
2018-12-15T08:56:14.834Z,13.83
2018-12-15T08:58:44.147Z,15.07
2018-12-15T09:01:14.450Z,13.53
2018-12-15T09:03:43.037Z,13.00
2018-12-15T09:06:11.671Z,14.43
2018-12-15T09:08:40.267Z,14.40
2018-12-15T09:11:08.792Z,16.53
2018-12-15T09:13:38.380Z,14.90
2018-12-15T09:16:07.629Z,15.23
2018-12-15T09:18:36.481Z,15.07
2018-12-15T09:21:05.029Z,17.37
2018-12-15T09:23:33.579Z,15.30
2018-12-15T09:26:02.441Z,13.63
2018-12-15T09:28:31.600Z,14.93
2018-12-15T09:31:00.318Z,16.20
2018-12-15T09:33:29.702Z,14.80
2018-12-15T09:35:58.221Z,14.03
2018-12-15T09:38:26.745Z,14.53
2018-12-15T09:40:55.307Z,16.43
2018-12-15T09:43:23.783Z,17.60
2018-12-15T09:45:52.287Z,17.13
2018-12-15T09:48:20.788Z,16.77
2018-12-15T09:50:50.633Z,16.03
2018-12-15T09:53:21.568Z,15.07
2018-12-15T09:55:50.114Z,16.73
2018-12-15T09:58:18.757Z,15.40
2018-12-15T10:00:47.321Z,15.37
2018-12-15T10:03:15.823Z,14.63
2018-12-15T10:05:44.327Z,14.67
2018-12-15T10:08:13.027Z,16.23
2018-12-15T10:10:41.944Z,15.70
2018-12-15T10:13:10.422Z,16.30
2018-12-15T10:15:40.350Z,14.40
2018-12-15T10:18:08.871Z,17.37
2018-12-15T10:20:37.480Z,15.70
2018-12-15T10:23:06.563Z,15.83
2018-12-15T10:25:35.146Z,16.13
2018-12-15T10:28:03.689Z,15.17
2018-12-15T10:30:37.543Z,15.83
2018-12-15T10:33:06.759Z,15.77
2018-12-15T10:35:35.246Z,16.93
2018-12-15T10:38:03.797Z,15.73
2018-12-15T10:40:33.187Z,15.07
2018-12-15T10:43:01.712Z,15.07
2018-12-15T10:45:31.536Z,18.13
2018-12-15T10:48:00.244Z,15.43
2018-12-15T10:50:28.867Z,16.77
2018-12-15T10:52:57.623Z,16.23
2018-12-15T10:55:26.144Z,16.90
2018-12-15T10:57:55.132Z,16.63
2018-12-15T11:00:26.560Z,18.57
2018-12-15T11:02:55.601Z,16.23
2018-12-15T11:05:24.622Z,16.07
2018-12-15T11:07:53.434Z,18.03
2018-12-15T11:10:22.401Z,17.73
2018-12-15T11:12:51.050Z,16.10
2018-12-15T11:15:20.463Z,15.40
2018-12-15T11:17:49.218Z,17.70
2018-12-15T11:20:19.117Z,16.93
2018-12-15T11:22:47.601Z,17.50
2018-12-15T11:25:16.158Z,17.27
2018-12-15T11:27:44.792Z,15.83
2018-12-15T11:30:13.412Z,15.67
2018-12-15T11:32:42.096Z,19.73
2018-12-15T11:35:10.621Z,19.03
2018-12-15T11:40:15.040Z,18.23
2018-12-15T11:42:44.944Z,17.30
2018-12-15T11:45:14.614Z,19.70
2018-12-15T11:47:43.420Z,15.73
2018-12-15T11:50:12.156Z,15.50
2018-12-15T11:52:40.681Z,16.17
2018-12-15T11:55:09.193Z,17.57
2018-12-15T11:57:38.439Z,16.37
2018-12-15T12:00:07.018Z,16.63
2018-12-15T12:02:35.916Z,17.73
2018-12-15T12:05:04.662Z,17.77
2018-12-15T12:07:33.206Z,17.80
2018-12-15T12:10:01.772Z,18.37
2018-12-15T12:12:31.840Z,16.50
2018-12-15T12:15:00.561Z,18.27
2018-12-15T12:17:29.084Z,19.20
2018-12-15T12:19:57.561Z,18.90
2018-12-15T12:22:26.030Z,20.57
2018-12-15T12:24:54.550Z,17.63
2018-12-15T12:27:23.174Z,18.07
2018-12-15T12:29:52.382Z,19.40
2018-12-15T12:32:21.000Z,20.17
2018-12-15T12:34:49.525Z,17.47
2018-12-15T12:37:18.773Z,19.63
2018-12-15T12:39:47.317Z,20.43
2018-12-15T12:42:15.870Z,19.93
2018-12-15T12:44:44.430Z,20.93
2018-12-15T12:47:13.141Z,21.20
2018-12-15T12:49:42.538Z,20.00
2018-12-15T12:52:11.777Z,18.80
2018-12-15T12:54:41.850Z,18.50
2018-12-15T12:57:10.616Z,16.93
2018-12-15T12:59:39.252Z,19.37
2018-12-15T13:02:07.782Z,19.83
2018-12-15T13:04:36.609Z,18.63
2018-12-15T13:07:05.300Z,17.77
2018-12-15T13:09:33.808Z,19.20
2018-12-15T13:12:02.438Z,19.40
2018-12-15T13:14:31.682Z,17.90
2018-12-15T13:17:00.643Z,20.70
2018-12-15T13:19:29.125Z,19.90
2018-12-15T13:21:57.570Z,20.03
2018-12-15T13:24:26.547Z,20.80
2018-12-15T13:26:59.099Z,51.70
2018-12-15T13:29:26.095Z,63.90
2018-12-15T13:31:54.698Z,22.47
2018-12-15T13:34:23.807Z,22.70
2018-12-15T13:36:52.746Z,18.17
2018-12-15T13:39:21.274Z,22.63
2018-12-15T13:41:49.956Z,20.30
2018-12-15T13:44:19.070Z,21.97
2018-12-15T13:46:47.807Z,22.10
2018-12-15T13:49:16.273Z,21.73
2018-12-15T13:51:44.832Z,19.27
2018-12-15T13:54:18.945Z,21.03
2018-12-15T13:56:48.098Z,20.37
2018-12-15T13:59:16.582Z,22.30
2018-12-15T14:01:45.606Z,19.70
2018-12-15T14:04:14.622Z,24.40
2018-12-15T14:06:43.061Z,19.30
2018-12-15T14:09:11.521Z,19.03
2018-12-15T14:11:40.856Z,22.13
2018-12-15T14:14:09.400Z,22.40
2018-12-15T14:16:37.813Z,21.03
2018-12-15T14:19:06.365Z,22.17
2018-12-15T14:21:34.865Z,21.73
2018-12-15T14:24:03.421Z,23.43
2018-12-15T14:26:31.910Z,23.70
2018-12-15T14:29:01.021Z,23.43
2018-12-15T14:31:29.626Z,22.07
2018-12-15T14:33:58.426Z,21.70
2018-12-15T14:36:26.898Z,20.70
2018-12-15T14:38:55.435Z,21.67
2018-12-15T14:41:25.162Z,21.93
2018-12-15T14:43:55.158Z,23.13
2018-12-15T14:46:23.688Z,23.93
2018-12-15T14:48:52.271Z,20.93
2018-12-15T14:51:20.865Z,22.13
2018-12-15T14:53:49.492Z,22.13
2018-12-15T14:56:18.013Z,20.77
2018-12-15T14:58:46.592Z,26.20
2018-12-15T15:01:15.693Z,21.30
2018-12-15T15:03:44.460Z,23.70
2018-12-15T15:06:13.085Z,24.83
2018-12-15T15:08:41.618Z,25.00
2018-12-15T15:11:10.183Z,21.83
2018-12-15T15:13:38.808Z,23.73
2018-12-15T15:16:07.528Z,22.17
2018-12-15T15:18:36.138Z,21.87
2018-12-15T15:21:04.701Z,21.40
2018-12-15T15:23:33.274Z,22.67
2018-12-15T15:26:02.360Z,25.20
2018-12-15T15:28:30.886Z,22.77
2018-12-15T15:30:59.537Z,23.00
2018-12-15T15:33:28.213Z,23.83
2018-12-15T15:35:56.673Z,23.40
2018-12-15T15:38:25.198Z,25.20
2018-12-15T15:40:53.739Z,27.20
2018-12-15T15:43:22.341Z,25.43
2018-12-15T15:45:52.372Z,26.37
2018-12-15T15:48:22.002Z,25.50
2018-12-15T15:50:50.597Z,23.50
2018-12-15T15:53:19.779Z,26.03
2018-12-15T15:55:48.401Z,24.83
2018-12-15T15:58:17.620Z,25.60
2018-12-15T16:00:46.964Z,24.07
2018-12-15T16:03:15.577Z,23.20
2018-12-15T16:05:44.241Z,23.83
2018-12-15T16:08:13.261Z,24.37
2018-12-15T16:10:42.111Z,23.57
2018-12-15T16:13:11.945Z,26.83
2018-12-15T16:15:41.922Z,27.27
2018-12-15T16:18:10.820Z,24.83
2018-12-15T16:20:43.236Z,25.43
2018-12-15T16:23:10.588Z,24.40
2018-12-15T16:25:39.234Z,25.37
2018-12-15T16:28:08.334Z,27.83
2018-12-15T16:30:36.810Z,25.37
2018-12-15T16:33:05.302Z,24.73
2018-12-15T16:35:34.027Z,22.27
2018-12-15T16:38:02.694Z,25.67
2018-12-15T16:40:31.275Z,27.00
2018-12-15T16:42:59.749Z,22.77
2018-12-15T16:45:29.075Z,24.40
2018-12-15T16:47:58.910Z,24.17
2018-12-15T16:50:27.636Z,23.03
2018-12-15T16:52:57.126Z,22.37
2018-12-15T16:55:25.682Z,26.27
2018-12-15T16:57:54.319Z,26.90
2018-12-15T17:00:24.045Z,24.83
2018-12-15T17:02:53.153Z,27.30
2018-12-15T17:05:23.369Z,26.73
2018-12-15T17:07:51.902Z,27.90
2018-12-15T17:10:21.010Z,22.53
2018-12-15T17:12:50.148Z,26.73
2018-12-15T17:15:19.131Z,25.47
2018-12-15T17:17:47.783Z,26.93
2018-12-15T17:20:16.600Z,34.97
2018-12-15T17:22:45.239Z,26.90
2018-12-15T17:25:14.307Z,25.50
2018-12-15T17:27:42.903Z,28.63
2018-12-15T17:30:12.287Z,25.53
2018-12-15T17:32:40.872Z,27.37
2018-12-15T17:35:09.518Z,26.97
2018-12-15T17:37:38.075Z,28.10
2018-12-15T17:40:08.690Z,23.73
2018-12-15T17:42:37.171Z,31.17
2018-12-15T17:45:07.180Z,117.17
2018-12-15T17:47:35.691Z,28.87
2018-12-15T17:50:04.254Z,26.60
2018-12-15T17:52:32.774Z,24.13
2018-12-15T17:55:01.358Z,28.10
2018-12-15T17:57:29.873Z,26.47
2018-12-15T17:59:58.549Z,28.50
2018-12-15T18:02:27.715Z,27.80
2018-12-15T18:04:56.247Z,26.50
2018-12-15T18:07:24.817Z,29.73
2018-12-15T18:09:54.509Z,28.83
2018-12-15T18:12:23.291Z,30.53
2018-12-15T18:14:52.063Z,32.73
2018-12-15T18:17:20.818Z,31.53
2018-12-15T18:19:49.521Z,26.33
2018-12-15T18:22:18.031Z,31.87
2018-12-15T18:24:47.898Z,31.80
2018-12-15T18:27:16.473Z,27.10
2018-12-15T18:29:45.014Z,29.40
2018-12-15T18:32:13.507Z,30.87
2018-12-15T18:34:42.114Z,29.07
2018-12-15T18:37:10.833Z,31.50
2018-12-15T18:39:39.483Z,30.70
2018-12-15T18:42:10.813Z,37.20
2018-12-15T18:44:38.772Z,31.97
2018-12-15T18:47:25.518Z,32.20
2018-12-15T18:49:54.138Z,30.87
2018-12-15T18:52:23.936Z,31.00
2018-12-15T18:54:53.079Z,36.57
2018-12-15T18:57:21.787Z,36.97
2018-12-15T18:59:50.869Z,34.77
2018-12-15T19:02:19.709Z,39.57
2018-12-15T19:04:48.731Z,37.27
2018-12-15T19:07:19.415Z,41.10
2018-12-15T19:09:50.698Z,34.53
2018-12-15T19:12:19.943Z,32.63
2018-12-15T19:14:49.553Z,31.43
2018-12-15T19:17:18.909Z,34.33
2018-12-15T19:19:47.499Z,53.00
2018-12-15T19:22:16.104Z,65.97
2018-12-15T19:24:44.593Z,53.83
2018-12-15T19:27:14.186Z,61.47
2018-12-15T19:29:42.800Z,61.33
2018-12-15T19:32:11.563Z,52.27
2018-12-15T19:34:42.078Z,34.40
2018-12-15T19:37:11.365Z,32.17
2018-12-15T19:39:40.179Z,33.97
2018-12-15T19:42:13.975Z,28.00
2018-12-15T19:44:56.932Z,32.37
2018-12-15T19:47:25.732Z,36.57
2018-12-15T19:49:54.946Z,36.73
2018-12-15T19:52:24.269Z,38.43
2018-12-15T19:54:52.899Z,34.87
2018-12-15T19:57:21.608Z,37.40
2018-12-15T19:59:50.188Z,38.70
2018-12-15T20:02:18.848Z,34.50
2018-12-15T20:04:47.517Z,43.20
2018-12-15T20:07:16.711Z,40.73
2018-12-15T20:09:45.291Z,47.07
2018-12-15T20:12:14.333Z,41.60
2018-12-15T20:14:42.871Z,43.20
2018-12-15T20:17:13.715Z,43.87
2018-12-15T20:19:42.428Z,46.97
2018-12-15T20:22:10.990Z,45.83
2018-12-15T20:24:39.516Z,40.63
2018-12-15T20:27:08.052Z,40.30
2018-12-15T20:29:36.542Z,42.13
2018-12-15T20:32:05.808Z,46.73
2018-12-15T20:34:34.363Z,47.23
2018-12-15T20:37:03.033Z,54.80
2018-12-15T20:39:31.574Z,51.70
2018-12-15T20:42:00.098Z,53.40
2018-12-15T20:44:29.390Z,56.60
2018-12-15T20:46:59.392Z,64.23
2018-12-15T20:49:27.910Z,52.50
2018-12-15T20:51:57.204Z,54.00
2018-12-15T20:54:25.884Z,51.00
2018-12-15T20:56:54.413Z,51.27
2018-12-15T20:59:23.542Z,48.80
2018-12-15T21:01:52.219Z,48.70
2018-12-15T21:04:20.786Z,50.23
2018-12-15T21:06:49.838Z,68.50
2018-12-15T21:09:18.462Z,52.45
2018-12-15T21:11:47.051Z,44.37
2018-12-15T21:14:15.666Z,57.27
2018-12-15T21:16:44.274Z,44.20
2018-12-15T21:19:13.411Z,44.60
2018-12-15T21:21:42.171Z,40.70
2018-12-15T21:24:10.716Z,45.80
2018-12-15T21:26:39.415Z,51.73
2018-12-15T21:29:08.493Z,50.83
2018-12-15T21:31:37.152Z,47.47
2018-12-15T21:34:08.034Z,47.83
2018-12-15T21:36:36.761Z,50.10
2018-12-15T21:39:06.731Z,46.30
2018-12-15T21:41:35.399Z,42.27
2018-12-15T21:44:04.418Z,44.80
2018-12-15T21:46:33.419Z,44.17
2018-12-15T21:49:01.981Z,41.87
2018-12-15T21:51:30.617Z,37.17
2018-12-15T21:53:59.287Z,35.27
2018-12-15T21:56:27.864Z,34.77
2018-12-15T21:58:56.509Z,30.10
2018-12-15T22:01:25.568Z,32.67
2018-12-15T22:03:54.228Z,35.40
2018-12-15T22:06:22.837Z,32.70
2018-12-15T22:08:51.413Z,40.03
2018-12-15T22:11:20.154Z,33.00
2018-12-15T22:13:48.733Z,33.83
2018-12-15T22:16:17.397Z,37.40
2018-12-15T22:18:46.773Z,30.17
2018-12-15T22:21:15.297Z,31.73
2018-12-15T22:23:43.873Z,33.63
2018-12-15T22:26:13.201Z,30.37
2018-12-15T22:28:41.838Z,30.67
2018-12-15T22:31:10.533Z,30.97
2018-12-15T22:33:39.143Z,31.13
2018-12-15T22:36:08.845Z,32.00
2018-12-15T22:38:37.475Z,31.63
2018-12-15T22:41:06.765Z,29.80
2018-12-15T22:43:35.247Z,29.80
2018-12-15T22:46:03.985Z,31.30
2018-12-15T22:48:33.185Z,27.30
2018-12-15T22:51:02.222Z,28.00
2018-12-15T22:53:31.502Z,28.83
2018-12-15T22:56:00.038Z,30.63
2018-12-15T22:58:29.923Z,29.30
2018-12-15T23:04:07.859Z,27.73
2018-12-15T23:06:36.485Z,31.17
2018-12-15T23:09:07.160Z,28.80
2018-12-15T23:11:35.654Z,29.90
2018-12-15T23:14:04.333Z,30.57
2018-12-15T23:16:45.282Z,27.33
2018-12-15T23:19:14.022Z,31.93
2018-12-15T23:21:42.530Z,28.07
2018-12-15T23:24:14.475Z,26.03
2018-12-15T23:26:43.754Z,26.53
2018-12-15T23:29:16.258Z,27.73
2018-12-15T23:31:44.957Z,28.93
2018-12-15T23:34:13.715Z,28.27
2018-12-15T23:36:42.329Z,29.87
2018-12-15T23:39:11.460Z,24.97
2018-12-15T23:41:40.570Z,25.30
2018-12-15T23:44:09.706Z,29.47
2018-12-15T23:46:38.254Z,28.23
2018-12-15T23:49:06.916Z,27.17
2018-12-15T23:51:36.833Z,27.83
2018-12-15T23:54:05.413Z,29.80
2018-12-15T23:56:34.063Z,25.93
2018-12-15T23:59:02.621Z,27.40
